Terminal Aerodrome Forecast
Issued by NWS

Home | Current Version | Previous Version | Text Only | Print | Product List | Glossary On
Versions: 1 2 3 4 5 6 7 8 9 10 11 12 13 14 15 16 17
000
FTUS41 KBTV 230533
TAFPBG
TAF
KPBG 230533Z 2306/2406 32008G14KT P6SM SCT035
      TEMPO 2306/2308 BKN035
     FM230800 32007KT P6SM FEW035
     FM231100 32004KT P6SM SCT150
     FM231400 19005KT P6SM BKN120
     FM232100 17005KT P6SM SCT100
     FM232200 18005KT P6SM BKN070=

USA.gov is the U.S. government's official web portal to all federal, state and local government web resources and services.